createdAt,value
2023-05-10T00:00:40.249Z,7
2023-05-10T00:06:10.374Z,6
2023-05-10T00:07:18.920Z,6
2023-05-10T00:17:10.624Z,5
2023-05-10T00:22:40.806Z,7
2023-05-10T00:28:10.950Z,6
2023-05-10T00:33:41.095Z,8
2023-05-10T00:39:11.283Z,5
2023-05-10T00:44:41.448Z,12
2023-05-10T00:50:11.619Z,5
2023-05-10T01:01:11.953Z,7
2023-05-10T01:06:42.118Z,5
2023-05-10T01:07:24.336Z,5
2023-05-10T01:12:12.280Z,11
2023-05-10T01:17:42.449Z,6
2023-05-10T01:23:12.583Z,5
2023-05-10T01:34:12.925Z,9
2023-05-10T01:39:43.067Z,5
2023-05-10T01:45:13.214Z,6
2023-05-10T01:50:43.400Z,4
2023-05-10T01:56:13.584Z,6
2023-05-10T02:01:43.743Z,7
2023-05-10T02:07:13.865Z,6
2023-05-10T02:07:30.110Z,6
2023-05-10T02:18:14.216Z,7
2023-05-10T02:23:44.372Z,8
2023-05-10T02:29:14.573Z,7
2023-05-10T02:51:15.217Z,10
2023-05-10T02:56:45.364Z,7
2023-05-10T03:02:15.533Z,8
2023-05-10T03:05:29.116Z,8
2023-05-10T03:18:46.019Z,6
2023-05-10T03:24:16.184Z,8
2023-05-10T03:29:46.359Z,7
2023-05-10T03:40:46.693Z,8
2023-05-10T03:46:16.928Z,6
2023-05-10T03:51:47.046Z,8
2023-05-10T03:57:17.160Z,9
2023-05-10T04:02:47.332Z,8
2023-05-10T04:05:31.054Z,8
2023-05-10T04:08:17.583Z,9
2023-05-10T04:19:17.837Z,12
2023-05-10T04:24:48.037Z,8
2023-05-10T04:30:18.383Z,12
2023-05-10T04:35:48.318Z,10
2023-05-10T04:41:18.551Z,8
2023-05-10T04:52:18.843Z,11
2023-05-10T04:57:48.996Z,7
2023-05-10T05:03:19.215Z,12
2023-05-10T05:05:36.577Z,12
2023-05-10T05:08:49.375Z,10
2023-05-10T05:25:19.821Z,9
2023-05-10T05:36:20.176Z,11
2023-05-10T05:41:50.825Z,10
2023-05-10T05:47:20.480Z,9
2023-05-10T05:52:50.637Z,8
2023-05-10T06:03:52.668Z,9
2023-05-10T06:05:42.123Z,9
2023-05-10T06:09:21.141Z,8
2023-05-10T06:14:51.351Z,11
2023-05-10T06:20:21.498Z,9
2023-05-10T06:25:51.679Z,11
2023-05-10T06:31:22.156Z,9
2023-05-10T06:36:52.015Z,10
2023-05-10T06:42:22.140Z,9
2023-05-10T06:47:52.313Z,10
2023-05-10T07:04:22.931Z,11
2023-05-10T07:05:47.616Z,11
2023-05-10T07:09:53.320Z,9
2023-05-10T07:15:23.152Z,11
2023-05-10T07:20:53.379Z,10
2023-05-10T07:37:23.810Z,11
2023-05-10T07:42:53.931Z,8
2023-05-10T07:48:24.102Z,9
2023-05-10T07:53:54.270Z,8
2023-05-10T08:05:53.121Z,8
2023-05-10T08:15:54.946Z,3
2023-05-10T08:26:55.243Z,4
2023-05-10T08:32:25.443Z,3
2023-05-10T08:37:55.576Z,2
2023-05-10T09:05:58.626Z,2
2023-05-10T09:16:27.640Z,3
2023-05-10T09:21:56.942Z,2
2023-05-10T09:32:57.272Z,3
2023-05-10T09:38:27.418Z,4
2023-05-10T09:43:57.575Z,3
2023-05-10T09:54:58.228Z,4
2023-05-10T10:00:29.318Z,2
2023-05-10T10:06:04.584Z,4
2023-05-10T10:11:28.430Z,3
2023-05-10T10:17:09.181Z,4
2023-05-10T10:22:28.715Z,3
2023-05-10T10:27:58.914Z,4
2023-05-10T10:33:29.388Z,3
2023-05-10T10:44:29.452Z,4
2023-05-10T10:55:29.742Z,5
2023-05-10T11:00:59.926Z,6
2023-05-10T11:06:09.735Z,6
2023-05-10T11:23:00.547Z,5
2023-05-10T11:28:30.704Z,8
2023-05-10T11:34:00.882Z,5
2023-05-10T11:39:31.014Z,8
2023-05-10T11:45:01.197Z,6
2023-05-10T11:56:01.516Z,8
2023-05-10T12:01:31.731Z,6
2023-05-10T12:06:15.206Z,6
2023-05-10T12:12:32.085Z,7
2023-05-10T12:18:02.469Z,5
2023-05-10T12:29:02.594Z,7
2023-05-10T12:34:32.740Z,6
2023-05-10T12:40:02.937Z,7
2023-05-10T12:45:33.222Z,5
2023-05-10T12:51:03.237Z,7
2023-05-10T12:56:33.411Z,6
2023-05-10T13:06:20.692Z,6
2023-05-10T13:35:04.579Z,7
2023-05-10T13:40:35.860Z,9
2023-05-10T13:46:04.900Z,7
2023-05-10T13:51:35.038Z,6
2023-05-10T14:02:35.379Z,7
2023-05-10T14:06:26.012Z,7
2023-05-10T14:08:05.510Z,8
2023-05-10T14:19:05.855Z,5
2023-05-10T14:24:36.221Z,6
2023-05-10T14:30:06.160Z,7
2023-05-10T14:35:36.845Z,6
2023-05-10T14:41:06.443Z,7
2023-05-10T14:46:36.717Z,6
2023-05-10T14:57:36.918Z,7
2023-05-10T15:03:07.140Z,6
2023-05-10T15:06:31.389Z,6
2023-05-10T15:14:07.443Z,7
2023-05-10T15:19:37.719Z,13
2023-05-10T15:25:07.793Z,14
2023-05-10T15:30:37.974Z,15
2023-05-10T15:36:08.091Z,16
2023-05-10T15:41:38.264Z,21
2023-05-10T15:47:08.428Z,19
2023-05-10T15:52:38.582Z,20
2023-05-10T15:58:08.851Z,18
2023-05-10T16:03:38.999Z,16
2023-05-10T16:06:37.140Z,16
2023-05-10T16:14:39.231Z,17
2023-05-10T16:20:09.418Z,19
2023-05-10T16:25:39.547Z,22
2023-05-10T16:31:09.802Z,21
2023-05-10T16:36:39.885Z,17
2023-05-10T16:42:10.050Z,20
2023-05-10T16:47:40.264Z,27
2023-05-10T16:53:10.422Z,21
2023-05-10T16:58:40.599Z,19
2023-05-10T17:04:10.754Z,18
2023-05-10T17:06:42.376Z,18
2023-05-10T17:09:40.891Z,13
2023-05-10T17:15:11.079Z,15
2023-05-10T17:20:41.278Z,14
2023-05-10T17:26:11.413Z,15
2023-05-10T17:31:41.686Z,16
2023-05-10T17:42:41.950Z,19
2023-05-10T17:48:12.097Z,21
2023-05-10T17:53:42.192Z,18
2023-05-10T18:04:42.556Z,19
2023-05-10T18:06:47.861Z,19
2023-05-10T18:10:12.693Z,14
2023-05-10T18:26:43.232Z,12
2023-05-10T18:32:13.377Z,11
2023-05-10T18:37:43.536Z,9
2023-05-10T18:43:13.670Z,10
2023-05-10T18:48:43.820Z,9
2023-05-10T19:05:14.413Z,10
2023-05-10T19:06:53.355Z,10
2023-05-10T19:10:44.467Z,8
2023-05-10T19:27:15.231Z,9
2023-05-10T19:32:45.182Z,8
2023-05-10T19:38:15.396Z,9
2023-05-10T19:43:45.482Z,14
2023-05-10T19:49:15.647Z,11
2023-05-10T19:54:45.810Z,10
2023-05-10T20:00:16.034Z,9
2023-05-10T20:05:46.223Z,11
2023-05-10T20:06:58.842Z,11
2023-05-10T20:11:16.361Z,8
2023-05-10T20:16:46.512Z,10
2023-05-10T20:22:16.632Z,9
2023-05-10T20:33:16.944Z,13
2023-05-10T20:38:47.112Z,7
2023-05-10T20:44:17.340Z,11
2023-05-10T20:49:47.441Z,8
2023-05-10T21:00:47.849Z,7
2023-05-10T21:06:18.047Z,9
2023-05-10T21:07:04.398Z,9
2023-05-10T21:11:48.137Z,8
2023-05-10T21:33:48.787Z,9
2023-05-10T21:44:49.077Z,8
2023-05-10T21:50:19.492Z,7
2023-05-10T21:55:49.415Z,8
2023-05-10T22:06:49.749Z,10
2023-05-10T22:07:09.979Z,10
2023-05-10T22:17:50.093Z,9
2023-05-10T22:23:20.278Z,11
2023-05-10T22:34:20.558Z,8
2023-05-10T22:39:50.730Z,12
2023-05-10T22:45:20.895Z,8
2023-05-10T22:50:51.049Z,9
2023-05-10T22:56:21.234Z,10
2023-05-10T23:01:51.401Z,11
2023-05-10T23:07:15.296Z,11
2023-05-10T23:12:51.711Z,10
2023-05-10T23:23:52.053Z,12
2023-05-10T23:29:22.231Z,9
2023-05-10T23:34:52.376Z,11
